sensor_id;sensor_type;location;lat;lon;timestamp;pressure;altitude;pressure_sealevel;temperature;humidity
19259;BME280;9763;48.780;9.212;2023-01-30T00:01:29;99095.66;;;2.05;68.82
19259;BME280;9763;48.780;9.212;2023-01-30T00:04:55;99087.16;;;2.02;68.74
19259;BME280;9763;48.780;9.212;2023-01-30T00:08:19;99078.63;;;2.00;68.71
19259;BME280;9763;48.780;9.212;2023-01-30T00:11:43;99070.94;;;1.98;68.96
19259;BME280;9763;48.780;9.212;2023-01-30T00:15:09;99053.84;;;1.94;69.07
19259;BME280;9763;48.780;9.212;2023-01-30T00:18:32;99041.91;;;1.92;68.62
19259;BME280;9763;48.780;9.212;2023-01-30T00:21:57;99028.19;;;1.91;68.75
19259;BME280;9763;48.780;9.212;2023-01-30T00:25:21;99030.75;;;1.91;68.86
19259;BME280;9763;48.780;9.212;2023-01-30T00:28:45;99048.75;;;1.93;68.96
19259;BME280;9763;48.780;9.212;2023-01-30T00:32:09;99055.53;;;1.95;68.95
19259;BME280;9763;48.780;9.212;2023-01-30T00:35:35;99039.22;;;1.96;69.19
19259;BME280;9763;48.780;9.212;2023-01-30T00:39:00;99018.66;;;1.95;68.75
19259;BME280;9763;48.780;9.212;2023-01-30T00:42:23;99014.34;;;1.95;68.68
19259;BME280;9763;48.780;9.212;2023-01-30T00:46:12;99026.34;;;1.96;69.30
19259;BME280;9763;48.780;9.212;2023-01-30T00:49:54;99027.22;;;1.95;69.09
19259;BME280;9763;48.780;9.212;2023-01-30T00:53:18;99042.66;;;1.97;69.30
19259;BME280;9763;48.780;9.212;2023-01-30T00:56:44;99039.44;;;1.86;68.88
19259;BME280;9763;48.780;9.212;2023-01-30T01:00:10;99058.97;;;1.96;69.22
19259;BME280;9763;48.780;9.212;2023-01-30T01:03:35;99076.16;;;1.94;68.95
19259;BME280;9763;48.780;9.212;2023-01-30T01:07:00;99089.06;;;1.92;69.31
19259;BME280;9763;48.780;9.212;2023-01-30T01:10:24;99104.53;;;1.92;69.19
19259;BME280;9763;48.780;9.212;2023-01-30T01:13:51;99115.66;;;1.93;69.14
19259;BME280;9763;48.780;9.212;2023-01-30T01:17:15;99104.47;;;1.94;69.20
19259;BME280;9763;48.780;9.212;2023-01-30T01:20:39;99100.22;;;1.93;69.23
19259;BME280;9763;48.780;9.212;2023-01-30T01:24:03;99107.00;;;1.97;69.50
19259;BME280;9763;48.780;9.212;2023-01-30T01:27:29;99109.59;;;1.95;69.16
19259;BME280;9763;48.780;9.212;2023-01-30T01:30:55;99123.22;;;2.00;69.44
19259;BME280;9763;48.780;9.212;2023-01-30T01:34:20;99126.66;;;2.01;69.21
19259;BME280;9763;48.780;9.212;2023-01-30T01:37:44;99128.34;;;2.02;69.21
19259;BME280;9763;48.780;9.212;2023-01-30T01:41:10;99118.94;;;2.01;69.06
19259;BME280;9763;48.780;9.212;2023-01-30T01:45:02;99088.97;;;1.97;69.06
19259;BME280;9763;48.780;9.212;2023-01-30T01:48:31;99109.47;;;2.03;69.21
19259;BME280;9763;48.780;9.212;2023-01-30T01:52:02;99111.16;;;2.04;69.29
19259;BME280;9763;48.780;9.212;2023-01-30T01:55:28;99105.91;;;2.08;69.01
19259;BME280;9763;48.780;9.212;2023-01-30T01:58:56;99116.00;;;2.17;68.71
19259;BME280;9763;48.780;9.212;2023-01-30T02:02:21;99096.94;;;2.28;69.37
19259;BME280;9763;48.780;9.212;2023-01-30T02:05:52;99111.38;;;2.35;69.01
19259;BME280;9763;48.780;9.212;2023-01-30T02:09:18;99113.03;;;2.39;68.80
19259;BME280;9763;48.780;9.212;2023-01-30T02:12:44;99120.63;;;2.43;69.02
19259;BME280;9763;48.780;9.212;2023-01-30T02:16:09;99118.88;;;2.45;68.58
19259;BME280;9763;48.780;9.212;2023-01-30T02:19:45;99107.72;;;2.45;68.50
19259;BME280;9763;48.780;9.212;2023-01-30T02:24:11;99063.50;;;2.26;68.76
19259;BME280;9763;48.780;9.212;2023-01-30T02:31:35;99073.03;;;2.21;69.22
19259;BME280;9763;48.780;9.212;2023-01-30T02:35:09;99054.34;;;2.13;69.44
19259;BME280;9763;48.780;9.212;2023-01-30T02:38:53;99086.97;;;2.11;69.33
19259;BME280;9763;48.780;9.212;2023-01-30T02:42:28;99093.03;;;2.08;69.14
19259;BME280;9763;48.780;9.212;2023-01-30T02:45:56;99072.38;;;2.11;69.35
19259;BME280;9763;48.780;9.212;2023-01-30T02:49:29;99035.53;;;2.09;69.07
19259;BME280;9763;48.780;9.212;2023-01-30T02:52:56;99041.50;;;2.10;69.36
19259;BME280;9763;48.780;9.212;2023-01-30T02:56:20;99065.53;;;2.10;69.41
19259;BME280;9763;48.780;9.212;2023-01-30T02:59:48;99041.69;;;2.02;69.47
19259;BME280;9763;48.780;9.212;2023-01-30T03:03:33;99040.78;;;2.05;69.42
19259;BME280;9763;48.780;9.212;2023-01-30T03:07:21;99013.56;;;1.93;68.61
19259;BME280;9763;48.780;9.212;2023-01-30T03:10:55;99021.13;;;2.01;69.14
19259;BME280;9763;48.780;9.212;2023-01-30T03:14:27;99007.44;;;1.99;69.49
19259;BME280;9763;48.780;9.212;2023-01-30T03:17:54;99000.59;;;1.98;69.87
19259;BME280;9763;48.780;9.212;2023-01-30T03:21:19;98991.13;;;1.98;69.96
19259;BME280;9763;48.780;9.212;2023-01-30T03:24:44;98955.06;;;2.00;69.72
19259;BME280;9763;48.780;9.212;2023-01-30T03:28:09;98925.72;;;2.07;69.32
19259;BME280;9763;48.780;9.212;2023-01-30T03:31:33;98889.53;;;2.14;69.78
19259;BME280;9763;48.780;9.212;2023-01-30T03:34:57;98870.59;;;2.17;69.41
19259;BME280;9763;48.780;9.212;2023-01-30T03:38:21;98878.06;;;2.28;69.66
19259;BME280;9763;48.780;9.212;2023-01-30T03:41:46;98891.53;;;2.39;69.28
19259;BME280;9763;48.780;9.212;2023-01-30T03:45:12;98888.72;;;2.48;69.28
19259;BME280;9763;48.780;9.212;2023-01-30T03:48:36;98893.66;;;2.56;69.96
19259;BME280;9763;48.780;9.212;2023-01-30T03:52:00;98887.47;;;2.64;69.88
19259;BME280;9763;48.780;9.212;2023-01-30T03:55:23;98880.72;;;2.59;69.67
19259;BME280;9763;48.780;9.212;2023-01-30T03:58:48;98930.78;;;2.82;69.48
19259;BME280;9763;48.780;9.212;2023-01-30T04:02:17;98926.34;;;2.89;69.35
19259;BME280;9763;48.780;9.212;2023-01-30T04:05:45;98921.81;;;2.97;69.51
19259;BME280;9763;48.780;9.212;2023-01-30T04:09:09;98925.94;;;3.03;69.62
19259;BME280;9763;48.780;9.212;2023-01-30T04:12:39;98933.53;;;3.09;69.64
19259;BME280;9763;48.780;9.212;2023-01-30T04:16:17;98929.81;;;3.19;69.37
19259;BME280;9763;48.780;9.212;2023-01-30T04:20:10;98921.94;;;3.25;69.28
19259;BME280;9763;48.780;9.212;2023-01-30T04:23:40;98926.88;;;3.33;69.63
19259;BME280;9763;48.780;9.212;2023-01-30T04:27:04;98907.84;;;3.37;69.14
19259;BME280;9763;48.780;9.212;2023-01-30T04:30:33;98915.44;;;3.41;69.14
19259;BME280;9763;48.780;9.212;2023-01-30T04:34:28;98910.34;;;3.38;69.44
19259;BME280;9763;48.780;9.212;2023-01-30T04:37:52;98913.78;;;3.39;69.53
19259;BME280;9763;48.780;9.212;2023-01-30T04:41:16;98902.59;;;3.40;69.04
19259;BME280;9763;48.780;9.212;2023-01-30T04:44:40;98907.59;;;3.46;69.48
19259;BME280;9763;48.780;9.212;2023-01-30T04:48:12;98903.97;;;3.51;69.50
19259;BME280;9763;48.780;9.212;2023-01-30T04:51:38;98917.50;;;3.59;69.51
19259;BME280;9763;48.780;9.212;2023-01-30T04:55:02;98899.22;;;3.67;69.54
19259;BME280;9763;48.780;9.212;2023-01-30T04:58:26;98899.94;;;3.72;69.00
19259;BME280;9763;48.780;9.212;2023-01-30T05:01:51;98900.66;;;3.76;69.27
19259;BME280;9763;48.780;9.212;2023-01-30T05:05:15;98893.69;;;3.79;69.15
19259;BME280;9763;48.780;9.212;2023-01-30T05:08:41;98893.59;;;3.82;69.10
19259;BME280;9763;48.780;9.212;2023-01-30T05:12:08;98881.50;;;3.84;68.78
19259;BME280;9763;48.780;9.212;2023-01-30T05:15:32;98884.88;;;3.86;68.60
19259;BME280;9763;48.780;9.212;2023-01-30T05:18:56;98875.38;;;3.87;68.98
19259;BME280;9763;48.780;9.212;2023-01-30T05:22:20;98869.28;;;3.89;68.42
19259;BME280;9763;48.780;9.212;2023-01-30T05:25:45;98866.66;;;3.91;68.73
19259;BME280;9763;48.780;9.212;2023-01-30T05:29:10;98865.72;;;3.93;68.93
19259;BME280;9763;48.780;9.212;2023-01-30T05:32:33;98859.63;;;3.96;68.67
19259;BME280;9763;48.780;9.212;2023-01-30T05:35:57;98845.88;;;3.95;68.62
19259;BME280;9763;48.780;9.212;2023-01-30T05:39:21;98850.09;;;3.98;68.79
19259;BME280;9763;48.780;9.212;2023-01-30T05:42:46;98837.91;;;4.02;68.41
19259;BME280;9763;48.780;9.212;2023-01-30T05:46:13;98842.06;;;4.07;68.79
19259;BME280;9763;48.780;9.212;2023-01-30T05:49:37;98853.22;;;4.08;68.33
19259;BME280;9763;48.780;9.212;2023-01-30T05:53:01;98854.94;;;4.09;68.73
19259;BME280;9763;48.780;9.212;2023-01-30T05:56:26;98859.97;;;4.12;68.56
19259;BME280;9763;48.780;9.212;2023-01-30T05:59:50;98869.28;;;4.17;68.38
19259;BME280;9763;48.780;9.212;2023-01-30T06:03:14;98864.03;;;4.20;68.66
19259;BME280;9763;48.780;9.212;2023-01-30T06:06:38;98871.84;;;4.17;68.69
19259;BME280;9763;48.780;9.212;2023-01-30T06:10:02;98860.78;;;4.14;68.11
19259;BME280;9763;48.780;9.212;2023-01-30T06:13:26;98858.22;;;4.12;68.44
19259;BME280;9763;48.780;9.212;2023-01-30T06:16:51;98862.50;;;4.13;68.70
19259;BME280;9763;48.780;9.212;2023-01-30T06:20:15;98858.94;;;4.17;68.43
19259;BME280;9763;48.780;9.212;2023-01-30T06:23:39;98861.38;;;4.22;68.64
19259;BME280;9763;48.780;9.212;2023-01-30T06:27:03;98842.50;;;4.20;68.67
19259;BME280;9763;48.780;9.212;2023-01-30T06:30:27;98841.00;;;4.13;68.17
19259;BME280;9763;48.780;9.212;2023-01-30T06:33:52;98828.44;;;4.02;68.76
19259;BME280;9763;48.780;9.212;2023-01-30T06:37:15;98820.13;;;3.92;68.15
19259;BME280;9763;48.780;9.212;2023-01-30T06:40:40;98820.22;;;3.89;68.37
19259;BME280;9763;48.780;9.212;2023-01-30T06:44:04;98812.41;;;3.92;68.68
19259;BME280;9763;48.780;9.212;2023-01-30T06:47:27;98821.00;;;3.93;68.32
19259;BME280;9763;48.780;9.212;2023-01-30T06:50:53;98821.78;;;3.95;68.29
19259;BME280;9763;48.780;9.212;2023-01-30T06:54:16;98813.78;;;4.03;68.87
19259;BME280;9763;48.780;9.212;2023-01-30T06:57:40;98811.03;;;4.09;68.11
19259;BME280;9763;48.780;9.212;2023-01-30T07:01:04;98805.69;;;4.13;68.30
19259;BME280;9763;48.780;9.212;2023-01-30T07:04:28;98816.78;;;4.17;68.81
19259;BME280;9763;48.780;9.212;2023-01-30T07:07:54;98818.38;;;4.21;68.63
19259;BME280;9763;48.780;9.212;2023-01-30T07:11:18;98831.16;;;4.24;68.19
19259;BME280;9763;48.780;9.212;2023-01-30T07:14:42;98836.22;;;4.27;68.53
19259;BME280;9763;48.780;9.212;2023-01-30T07:18:06;98841.34;;;4.28;68.39
19259;BME280;9763;48.780;9.212;2023-01-30T07:21:30;98858.53;;;4.29;68.08
19259;BME280;9763;48.780;9.212;2023-01-30T07:24:55;98855.81;;;4.34;68.48
19259;BME280;9763;48.780;9.212;2023-01-30T07:28:19;98857.38;;;4.38;68.48
19259;BME280;9763;48.780;9.212;2023-01-30T07:31:43;98843.75;;;4.34;68.38
19259;BME280;9763;48.780;9.212;2023-01-30T07:35:08;98853.78;;;4.44;68.15
19259;BME280;9763;48.780;9.212;2023-01-30T07:38:32;98868.16;;;4.51;68.30
19259;BME280;9763;48.780;9.212;2023-01-30T07:41:59;98874.97;;;4.53;67.77
19259;BME280;9763;48.780;9.212;2023-01-30T07:45:23;98886.84;;;4.59;68.34
19259;BME280;9763;48.780;9.212;2023-01-30T07:48:47;98874.00;;;4.57;67.99
19259;BME280;9763;48.780;9.212;2023-01-30T07:52:11;98887.50;;;4.65;68.09
19259;BME280;9763;48.780;9.212;2023-01-30T07:55:35;98879.59;;;4.70;68.60
19259;BME280;9763;48.780;9.212;2023-01-30T07:59:00;98870.78;;;4.76;67.99
19259;BME280;9763;48.780;9.212;2023-01-30T08:02:27;98860.28;;;4.80;68.05
19259;BME280;9763;48.780;9.212;2023-01-30T08:05:51;98846.50;;;4.80;67.77
19259;BME280;9763;48.780;9.212;2023-01-30T08:09:15;98857.66;;;4.82;68.31
19259;BME280;9763;48.780;9.212;2023-01-30T08:12:39;98859.34;;;4.83;67.99
19259;BME280;9763;48.780;9.212;2023-01-30T08:16:06;98868.50;;;4.91;68.01
19259;BME280;9763;48.780;9.212;2023-01-30T08:19:30;98901.97;;;4.96;68.29
19259;BME280;9763;48.780;9.212;2023-01-30T08:22:54;98900.03;;;5.02;67.54
19259;BME280;9763;48.780;9.212;2023-01-30T08:26:18;98876.75;;;5.02;67.53
19259;BME280;9763;48.780;9.212;2023-01-30T08:29:43;98881.16;;;4.99;67.74
19259;BME280;9763;48.780;9.212;2023-01-30T08:33:08;98876.03;;;4.97;68.00
19259;BME280;9763;48.780;9.212;2023-01-30T08:36:32;98843.31;;;4.96;67.85
19259;BME280;9763;48.780;9.212;2023-01-30T08:39:56;98825.97;;;5.00;68.55
19259;BME280;9763;48.780;9.212;2023-01-30T08:43:20;98835.75;;;5.15;68.42
19259;BME280;9763;48.780;9.212;2023-01-30T08:46:43;98826.16;;;5.42;68.82
19259;BME280;9763;48.780;9.212;2023-01-30T08:50:10;98814.00;;;5.66;68.13
19259;BME280;9763;48.780;9.212;2023-01-30T08:53:34;98817.56;;;5.85;68.02
19259;BME280;9763;48.780;9.212;2023-01-30T08:56:58;98806.56;;;6.02;67.76
19259;BME280;9763;48.780;9.212;2023-01-30T09:00:22;98807.81;;;6.13;67.59
19259;BME280;9763;48.780;9.212;2023-01-30T09:03:46;98805.38;;;6.31;67.32
19259;BME280;9763;48.780;9.212;2023-01-30T09:07:11;98787.03;;;6.35;67.56
19259;BME280;9763;48.780;9.212;2023-01-30T09:10:34;98756.97;;;6.31;67.43
19259;BME280;9763;48.780;9.212;2023-01-30T09:13:58;98765.41;;;6.36;67.68
19259;BME280;9763;48.780;9.212;2023-01-30T09:17:22;98771.16;;;6.63;67.62
19259;BME280;9763;48.780;9.212;2023-01-30T09:20:46;98776.69;;;6.95;67.96
19259;BME280;9763;48.780;9.212;2023-01-30T09:24:11;98766.53;;;7.09;67.37
19259;BME280;9763;48.780;9.212;2023-01-30T09:27:35;98787.09;;;7.32;67.57
19259;BME280;9763;48.780;9.212;2023-01-30T09:31:02;98779.91;;;7.37;66.71
19259;BME280;9763;48.780;9.212;2023-01-30T09:34:26;98778.53;;;7.30;66.90
19259;BME280;9763;48.780;9.212;2023-01-30T09:37:52;98776.34;;;7.21;66.83
19259;BME280;9763;48.780;9.212;2023-01-30T09:41:41;98777.63;;;7.12;67.00
19259;BME280;9763;48.780;9.212;2023-01-30T09:45:32;98784.19;;;7.01;66.88
19259;BME280;9763;48.780;9.212;2023-01-30T09:49:09;98776.69;;;6.95;67.64
19259;BME280;9763;48.780;9.212;2023-01-30T09:52:50;98759.50;;;6.92;67.36
19259;BME280;9763;48.780;9.212;2023-01-30T09:56:15;98760.41;;;6.91;67.26
19259;BME280;9763;48.780;9.212;2023-01-30T09:59:50;98743.16;;;6.90;67.19
19259;BME280;9763;48.780;9.212;2023-01-30T10:03:18;98717.25;;;6.88;67.26
19259;BME280;9763;48.780;9.212;2023-01-30T10:06:57;98723.03;;;6.95;67.54
19259;BME280;9763;48.780;9.212;2023-01-30T10:10:39;98720.00;;;7.04;67.35
19259;BME280;9763;48.780;9.212;2023-01-30T10:14:22;98714.06;;;7.21;67.56
19259;BME280;9763;48.780;9.212;2023-01-30T10:18:17;98694.22;;;7.37;67.48
19259;BME280;9763;48.780;9.212;2023-01-30T10:21:54;98695.72;;;7.43;67.29
19259;BME280;9763;48.780;9.212;2023-01-30T10:25:28;98680.91;;;7.45;66.86
19259;BME280;9763;48.780;9.212;2023-01-30T10:28:57;98686.94;;;7.45;67.31
19259;BME280;9763;48.780;9.212;2023-01-30T10:32:32;98699.84;;;7.47;66.88
19259;BME280;9763;48.780;9.212;2023-01-30T10:36:05;98694.72;;;7.45;67.04
19259;BME280;9763;48.780;9.212;2023-01-30T10:39:35;98699.09;;;7.45;66.96
19259;BME280;9763;48.780;9.212;2023-01-30T10:43:23;98704.41;;;7.42;67.41
19259;BME280;9763;48.780;9.212;2023-01-30T10:47:03;98691.50;;;7.40;67.19
19259;BME280;9763;48.780;9.212;2023-01-30T10:50:48;98678.53;;;7.40;67.14
19259;BME280;9763;48.780;9.212;2023-01-30T10:54:22;98681.97;;;7.41;67.79
19259;BME280;9763;48.780;9.212;2023-01-30T10:57:54;98684.63;;;7.39;66.73
19259;BME280;9763;48.780;9.212;2023-01-30T11:01:23;98695.25;;;7.35;67.08
19259;BME280;9763;48.780;9.212;2023-01-30T11:04:52;98693.75;;;7.29;67.58
19259;BME280;9763;48.780;9.212;2023-01-30T11:08:22;98678.31;;;7.26;67.19
19259;BME280;9763;48.780;9.212;2023-01-30T11:11:50;98695.66;;;7.26;67.21
19259;BME280;9763;48.780;9.212;2023-01-30T11:15:14;98701.63;;;7.28;67.71
19259;BME280;9763;48.780;9.212;2023-01-30T11:18:44;98694.75;;;7.27;67.99
19259;BME280;9763;48.780;9.212;2023-01-30T11:22:30;98699.25;;;7.23;67.33
19259;BME280;9763;48.780;9.212;2023-01-30T11:25:57;98683.06;;;7.18;67.67
19259;BME280;9763;48.780;9.212;2023-01-30T11:29:36;98674.50;;;7.16;67.74
19259;BME280;9763;48.780;9.212;2023-01-30T11:33:12;98686.56;;;7.17;67.36
19259;BME280;9763;48.780;9.212;2023-01-30T11:36:35;98682.13;;;7.19;67.59
19259;BME280;9763;48.780;9.212;2023-01-30T11:40:18;98687.19;;;7.22;67.39
19259;BME280;9763;48.780;9.212;2023-01-30T11:43:43;98693.50;;;7.16;67.43
19259;BME280;9763;48.780;9.212;2023-01-30T11:47:23;98694.38;;;6.98;68.18
19259;BME280;9763;48.780;9.212;2023-01-30T11:50:54;98709.59;;;6.87;68.02
19259;BME280;9763;48.780;9.212;2023-01-30T11:54:30;98700.72;;;6.72;68.83
19259;BME280;9763;48.780;9.212;2023-01-30T11:57:57;98695.03;;;6.64;68.54
19259;BME280;9763;48.780;9.212;2023-01-30T12:01:26;98689.28;;;6.58;69.26
19259;BME280;9763;48.780;9.212;2023-01-30T12:04:55;98692.91;;;6.54;70.04
19259;BME280;9763;48.780;9.212;2023-01-30T12:08:26;98686.81;;;6.55;70.19
19259;BME280;9763;48.780;9.212;2023-01-30T12:12:32;98681.06;;;6.48;70.20
19259;BME280;9763;48.780;9.212;2023-01-30T12:16:15;98672.50;;;6.46;70.59
19259;BME280;9763;48.780;9.212;2023-01-30T12:19:55;98666.84;;;6.38;69.89
19259;BME280;9763;48.780;9.212;2023-01-30T12:23:41;98647.88;;;6.17;70.12
19259;BME280;9763;48.780;9.212;2023-01-30T12:27:15;98668.91;;;6.30;70.46
19259;BME280;9763;48.780;9.212;2023-01-30T12:30:49;98661.34;;;6.25;70.62
19259;BME280;9763;48.780;9.212;2023-01-30T12:34:16;98656.34;;;6.21;70.54
19259;BME280;9763;48.780;9.212;2023-01-30T12:37:56;98670.75;;;6.28;70.55
19259;BME280;9763;48.780;9.212;2023-01-30T12:41:40;98672.34;;;6.30;70.67
19259;BME280;9763;48.780;9.212;2023-01-30T12:45:22;98677.53;;;6.30;70.02
19259;BME280;9763;48.780;9.212;2023-01-30T12:49:12;98675.78;;;6.31;70.24
19259;BME280;9763;48.780;9.212;2023-01-30T12:57:14;98715.84;;;6.24;70.64
19259;BME280;9763;48.780;9.212;2023-01-30T13:00:55;98713.47;;;6.18;70.48
19259;BME280;9763;48.780;9.212;2023-01-30T13:04:27;98720.41;;;6.17;71.00
19259;BME280;9763;48.780;9.212;2023-01-30T13:08:25;98720.13;;;6.25;70.91
19259;BME280;9763;48.780;9.212;2023-01-30T13:12:03;98706.44;;;6.21;70.78
19259;BME280;9763;48.780;9.212;2023-01-30T13:15:37;98706.31;;;6.24;71.12
19259;BME280;9763;48.780;9.212;2023-01-30T13:19:12;98696.84;;;6.23;71.24
19259;BME280;9763;48.780;9.212;2023-01-30T13:22:48;98702.66;;;6.28;70.70
19259;BME280;9763;48.780;9.212;2023-01-30T13:26:19;98704.34;;;6.29;70.67
19259;BME280;9763;48.780;9.212;2023-01-30T13:29:47;98705.84;;;6.35;70.77
19259;BME280;9763;48.780;9.212;2023-01-30T13:33:12;98714.91;;;6.45;71.03
19259;BME280;9763;48.780;9.212;2023-01-30T13:36:48;98732.63;;;6.54;70.52
19259;BME280;9763;48.780;9.212;2023-01-30T13:40:18;98726.97;;;6.65;70.38
19259;BME280;9763;48.780;9.212;2023-01-30T13:43:50;98745.84;;;6.68;71.04
19259;BME280;9763;48.780;9.212;2023-01-30T13:47:26;98745.59;;;6.74;70.34
19259;BME280;9763;48.780;9.212;2023-01-30T13:51:11;98751.47;;;6.78;70.28
19259;BME280;9763;48.780;9.212;2023-01-30T13:54:45;98770.34;;;6.81;70.66
19259;BME280;9763;48.780;9.212;2023-01-30T13:58:25;98772.69;;;6.88;70.23
19259;BME280;9763;48.780;9.212;2023-01-30T14:02:17;98766.44;;;6.92;70.49
19259;BME280;9763;48.780;9.212;2023-01-30T14:06:12;98781.09;;;6.93;70.32
19259;BME280;9763;48.780;9.212;2023-01-30T14:09:50;98772.34;;;6.95;70.62
19259;BME280;9763;48.780;9.212;2023-01-30T14:13:15;98755.78;;;6.98;70.31
19259;BME280;9763;48.780;9.212;2023-01-30T14:16:42;98767.78;;;7.00;70.60
19259;BME280;9763;48.780;9.212;2023-01-30T14:20:16;98770.94;;;7.07;70.68
19259;BME280;9763;48.780;9.212;2023-01-30T14:23:53;98779.28;;;7.13;70.95
19259;BME280;9763;48.780;9.212;2023-01-30T14:27:25;98765.19;;;7.19;71.26
19259;BME280;9763;48.780;9.212;2023-01-30T14:30:55;98766.59;;;7.26;71.32
19259;BME280;9763;48.780;9.212;2023-01-30T14:34:38;98777.41;;;7.36;70.48
19259;BME280;9763;48.780;9.212;2023-01-30T14:38:14;98776.56;;;7.35;70.83
19259;BME280;9763;48.780;9.212;2023-01-30T14:41:40;98767.56;;;7.42;70.52
19259;BME280;9763;48.780;9.212;2023-01-30T14:45:13;98782.88;;;7.48;70.45
19259;BME280;9763;48.780;9.212;2023-01-30T14:48:42;98788.63;;;7.55;70.09
19259;BME280;9763;48.780;9.212;2023-01-30T14:52:27;98800.69;;;7.56;70.26
19259;BME280;9763;48.780;9.212;2023-01-30T14:56:00;98797.47;;;7.51;69.38
19259;BME280;9763;48.780;9.212;2023-01-30T14:59:28;98803.16;;;7.40;69.75
19259;BME280;9763;48.780;9.212;2023-01-30T15:02:57;98813.13;;;7.31;70.07
19259;BME280;9763;48.780;9.212;2023-01-30T15:06:23;98812.56;;;7.24;69.99
19259;BME280;9763;48.780;9.212;2023-01-30T15:09:52;98822.44;;;7.16;68.98
19259;BME280;9763;48.780;9.212;2023-01-30T15:13:46;98824.66;;;7.05;69.15
19259;BME280;9763;48.780;9.212;2023-01-30T15:17:21;98845.28;;;7.08;69.21
19259;BME280;9763;48.780;9.212;2023-01-30T15:21:02;98848.06;;;7.03;69.10
19259;BME280;9763;48.780;9.212;2023-01-30T15:24:47;98849.81;;;7.03;69.13
19259;BME280;9763;48.780;9.212;2023-01-30T15:28:31;98852.72;;;6.97;69.18
19259;BME280;9763;48.780;9.212;2023-01-30T15:32:02;98855.38;;;6.95;69.13
19259;BME280;9763;48.780;9.212;2023-01-30T15:35:36;98850.09;;;6.97;68.81
19259;BME280;9763;48.780;9.212;2023-01-30T15:39:02;98845.63;;;7.00;68.65
19259;BME280;9763;48.780;9.212;2023-01-30T15:42:26;98854.09;;;7.04;68.59
19259;BME280;9763;48.780;9.212;2023-01-30T15:46:02;98850.66;;;7.03;68.97
19259;BME280;9763;48.780;9.212;2023-01-30T15:49:53;98855.94;;;7.02;69.17
19259;BME280;9763;48.780;9.212;2023-01-30T15:53:24;98857.78;;;7.00;69.15
19259;BME280;9763;48.780;9.212;2023-01-30T15:56:50;98848.41;;;6.96;68.93
19259;BME280;9763;48.780;9.212;2023-01-30T16:00:23;98859.03;;;6.90;69.64
19259;BME280;9763;48.780;9.212;2023-01-30T16:03:49;98857.63;;;6.82;69.39
19259;BME280;9763;48.780;9.212;2023-01-30T16:07:23;98863.84;;;6.78;69.83
19259;BME280;9763;48.780;9.212;2023-01-30T16:10:48;98873.59;;;6.73;69.43
19259;BME280;9763;48.780;9.212;2023-01-30T16:14:14;98873.72;;;6.70;69.52
19259;BME280;9763;48.780;9.212;2023-01-30T16:17:39;98866.97;;;6.66;69.22
19259;BME280;9763;48.780;9.212;2023-01-30T16:21:06;98890.44;;;6.63;69.98
19259;BME280;9763;48.780;9.212;2023-01-30T16:24:35;98890.44;;;6.63;69.54
19259;BME280;9763;48.780;9.212;2023-01-30T16:28:00;98885.19;;;6.65;69.61
19259;BME280;9763;48.780;9.212;2023-01-30T16:31:24;98892.91;;;6.66;69.74
19259;BME280;9763;48.780;9.212;2023-01-30T16:34:49;98902.38;;;6.67;69.46
19259;BME280;9763;48.780;9.212;2023-01-30T16:38:34;98923.06;;;6.69;69.48
19259;BME280;9763;48.780;9.212;2023-01-30T16:42:01;98933.50;;;6.67;69.92
19259;BME280;9763;48.780;9.212;2023-01-30T16:49:43;98939.53;;;6.68;69.50
19259;BME280;9763;48.780;9.212;2023-01-30T16:53:13;98952.44;;;6.69;69.98
19259;BME280;9763;48.780;9.212;2023-01-30T16:56:37;98953.34;;;6.68;69.95
19259;BME280;9763;48.780;9.212;2023-01-30T17:00:21;98950.81;;;6.67;69.60
19259;BME280;9763;48.780;9.212;2023-01-30T17:03:53;98948.34;;;6.64;70.14
19259;BME280;9763;48.780;9.212;2023-01-30T17:07:33;98945.19;;;6.56;69.68
19259;BME280;9763;48.780;9.212;2023-01-30T17:10:58;98956.38;;;6.58;69.74
19259;BME280;9763;48.780;9.212;2023-01-30T17:14:23;98959.13;;;6.53;69.69
19259;BME280;9763;48.780;9.212;2023-01-30T17:17:49;98961.06;;;6.48;70.08
19259;BME280;9763;48.780;9.212;2023-01-30T17:21:13;98975.97;;;6.43;69.90
19259;BME280;9763;48.780;9.212;2023-01-30T17:24:37;98970.22;;;6.35;70.27
19259;BME280;9763;48.780;9.212;2023-01-30T17:28:01;98978.19;;;6.30;69.97
19259;BME280;9763;48.780;9.212;2023-01-30T17:31:27;98987.66;;;6.31;70.39
19259;BME280;9763;48.780;9.212;2023-01-30T17:34:52;98999.66;;;6.34;70.42
19259;BME280;9763;48.780;9.212;2023-01-30T17:38:17;99016.06;;;6.34;70.05
19259;BME280;9763;48.780;9.212;2023-01-30T17:41:42;99013.56;;;6.31;70.36
19259;BME280;9763;48.780;9.212;2023-01-30T17:45:06;99017.25;;;6.26;70.27
19259;BME280;9763;48.780;9.212;2023-01-30T17:48:31;99025.25;;;6.20;69.87
19259;BME280;9763;48.780;9.212;2023-01-30T17:51:57;99021.09;;;6.16;70.10
19259;BME280;9763;48.780;9.212;2023-01-30T17:55:21;99017.88;;;6.09;70.15
19259;BME280;9763;48.780;9.212;2023-01-30T17:58:45;99037.84;;;6.05;70.13
19259;BME280;9763;48.780;9.212;2023-01-30T18:02:09;99047.50;;;6.02;70.31
19259;BME280;9763;48.780;9.212;2023-01-30T18:05:33;99045.88;;;5.99;70.62
19259;BME280;9763;48.780;9.212;2023-01-30T18:08:58;99050.34;;;5.94;70.88
19259;BME280;9763;48.780;9.212;2023-01-30T18:12:22;99058.06;;;5.96;70.31
19259;BME280;9763;48.780;9.212;2023-01-30T18:15:45;99053.13;;;5.90;70.23
19259;BME280;9763;48.780;9.212;2023-01-30T18:19:12;99065.94;;;5.93;70.84
19259;BME280;9763;48.780;9.212;2023-01-30T18:22:35;99071.88;;;5.96;70.89
19259;BME280;9763;48.780;9.212;2023-01-30T18:26:01;99070.88;;;6.00;70.60
19259;BME280;9763;48.780;9.212;2023-01-30T18:29:25;99069.13;;;6.01;70.47
19259;BME280;9763;48.780;9.212;2023-01-30T18:32:49;99083.78;;;6.02;70.27
19259;BME280;9763;48.780;9.212;2023-01-30T18:36:16;99083.66;;;6.05;70.53
19259;BME280;9763;48.780;9.212;2023-01-30T18:39:41;99082.66;;;6.09;70.40
19259;BME280;9763;48.780;9.212;2023-01-30T18:43:06;99101.47;;;6.14;70.90
19259;BME280;9763;48.780;9.212;2023-01-30T18:46:30;99103.09;;;6.17;70.76
19259;BME280;9763;48.780;9.212;2023-01-30T18:49:54;99106.38;;;6.22;70.54
19259;BME280;9763;48.780;9.212;2023-01-30T18:53:18;99106.22;;;6.26;70.39
19259;BME280;9763;48.780;9.212;2023-01-30T18:56:41;99114.59;;;6.33;70.89
19259;BME280;9763;48.780;9.212;2023-01-30T19:00:09;99116.31;;;6.34;70.70
19259;BME280;9763;48.780;9.212;2023-01-30T19:03:33;99101.03;;;6.26;70.35
19259;BME280;9763;48.780;9.212;2023-01-30T19:06:56;99119.50;;;6.40;70.41
19259;BME280;9763;48.780;9.212;2023-01-30T19:10:20;99114.16;;;6.45;70.45
19259;BME280;9763;48.780;9.212;2023-01-30T19:13:44;99115.94;;;6.43;70.79